Latest Weather Observations for Outer Harbor (Black Pole)

IDS60801

Issued at 7:21 am CDT Tuesday 7 December 2021 (issued every 10 minutes, with the page automatically refreshed every 10 minutes)

About weather observations | Map of weather stations | Latest weather observations for SA | Other Formats
Station Details ID: 023052 Name: BLACK POLE Lat: -34.73 Lon: 138.47 Height: 6.27 m
Data from the previous 72 hours. | See also: Recent months for locations in South Australia
Date/Time
CDT
Temp
°C
App
Temp
°C
Dew
Point
°C
Rel
Hum
%
Delta-T
°C
Wind Press
QNH
hPa
Press
MSL
hPa
Rain since
9am
mm
Dir  Spd
km/h
Gust
km/h
Spd
kts
Gust
kts
07/07:00am - - - - - S 35 43 19 23 - - -
07/06:30am - - - - - SSW 30 41 16 22 - - -
07/06:00am - - - - - S 28 37 15 20 - - -
07/05:30am - - - - - SW 37 44 20 24 - - -
07/05:00am - - - - - SSW 24 30 13 16 - - -
07/04:30am - - - - - SW 32 39 17 21 - - -
07/04:00am - - - - - SW 22 28 12 15 - - -
07/03:30am - - - - - SSW 22 28 12 15 - - -
07/03:00am - - - - - SW 24 30 13 16 - - -
07/02:30am - - - - - SSW 13 22 7 12 - - -
07/02:00am - - - - - SSW 20 28 11 15 - - -
07/01:30am - - - - - S 17 20 9 11 - - -
07/01:00am - - - - - S 19 22 10 12 - - -
07/12:30am - - - - - S 17 22 9 12 - - -
07/12:00am - - - - - S 19 24 10 13 - - -
 
Date/Time
CDT
Temp
°C
App
Temp
°C
Dew
Point
°C
Rel
Hum
%
Delta-T
°C
Wind Press
QNH
hPa
Press
MSL
hPa
Rain since
9am
mm
Dir  Spd
km/h
Gust
km/h
Spd
kts
Gust
kts
06/11:30pm - - - - - S 24 32 13 17 - - -
06/11:00pm - - - - - S 26 35 14 19 - - -
06/10:30pm - - - - - SSW 30 37 16 20 - - -
06/10:00pm - - - - - SSW 32 39 17 21 - - -
06/09:30pm - - - - - SSW 28 35 15 19 - - -
06/09:00pm - - - - - SW 32 39 17 21 - - -
06/08:30pm - - - - - SW 32 35 17 19 - - -
06/08:00pm - - - - - SW 28 33 15 18 - - -
06/07:30pm - - - - - SW 30 35 16 19 - - -
06/07:00pm - - - - - SW 33 39 18 21 - - -
06/06:30pm - - - - - SW 35 41 19 22 - - -
06/06:00pm - - - - - SW 35 41 19 22 - - -
06/05:30pm - - - - - SW 35 41 19 22 - - -
06/05:00pm - - - - - SSW 33 39 18 21 - - -
06/04:30pm - - - - - SSW 32 37 17 20 - - -
06/04:00pm - - - - - SSW 33 39 18 21 - - -
06/03:30pm - - - - - SSW 35 39 19 21 - - -
06/03:00pm - - - - - SSW 35 41 19 22 - - -
06/02:30pm - - - - - SSW 35 43 19 23 - - -
06/02:00pm - - - - - SSW 33 39 18 21 - - -
06/01:30pm - - - - - SSW 26 32 14 17 - - -
06/01:00pm - - - - - SW 28 37 15 20 - - -
06/12:30pm - - - - - SW 24 26 13 14 - - -
06/12:00pm - - - - - SW 26 30 14 16 - - -
06/11:30am - - - - - SW 22 26 12 14 - - -
06/11:00am - - - - - WSW 15 19 8 10 - - -
06/10:30am - - - - - WSW 9 13 5 7 - - -
06/10:00am - - - - - WNW 4 7 2 4 - - -
06/09:30am - - - - - NW 4 4 2 2 - - -
06/09:00am - - - - - NNW 2 4 1 2 - - -
06/08:30am - - - - - NE 6 7 3 4 - - -
06/08:00am - - - - - NE 7 9 4 5 - - -
06/07:30am - - - - - NE 7 11 4 6 - - -
06/07:00am - - - - - SSE 7 9 4 5 - - -
06/06:30am - - - - - SSW 11 15 6 8 - - -
06/06:00am - - - - - SW 9 11 5 6 - - -
06/05:30am - - - - - SW 13 17 7 9 - - -
06/05:00am - - - - - SW 4 6 2 3 - - -
06/04:30am - - - - - SW 9 11 5 6 - - -
06/04:00am - - - - - WSW 9 11 5 6 - - -
06/03:30am - - - - - WSW 7 9 4 5 - - -
06/03:00am - - - - - WSW 7 9 4 5 - - -
06/02:30am - - - - - SW 4 7 2 4 - - -
06/02:00am - - - - - CALM 0 2 0 1 - - -
06/01:30am - - - - - SSW 4 9 2 5 - - -
06/01:00am - - - - - SSE 7 9 4 5 - - -
06/12:30am - - - - - SE 9 13 5 7 - - -
06/12:00am - - - - - SE 13 15 7 8 - - -
 
Date/Time
CDT
Temp
°C
App
Temp
°C
Dew
Point
°C
Rel
Hum
%
Delta-T
°C
Wind Press
QNH
hPa
Press
MSL
hPa
Rain since
9am
mm
Dir  Spd
km/h
Gust
km/h
Spd
kts
Gust
kts
05/11:30pm - - - - - SE 15 19 8 10 - - -
05/11:00pm - - - - - SE 17 20 9 11 - - -
05/10:30pm - - - - - SE 17 19 9 10 - - -
05/10:00pm - - - - - SE 13 15 7 8 - - -
05/09:30pm - - - - - SE 19 20 10 11 - - -
05/09:00pm - - - - - SE 17 20 9 11 - - -
05/08:30pm - - - - - SE 19 22 10 12 - - -
05/08:00pm - - - - - S 17 22 9 12 - - -
05/07:30pm - - - - - S 28 32 15 17 - - -
05/07:00pm - - - - - SSW 30 35 16 19 - - -
05/06:30pm - - - - - SSW 30 33 16 18 - - -
05/06:00pm - - - - - SSW 32 37 17 20 - - -
05/05:30pm - - - - - SSW 32 37 17 20 - - -
05/05:00pm - - - - - SSW 32 35 17 19 - - -
05/04:30pm - - - - - S 33 39 18 21 - - -
05/04:00pm - - - - - SSW 37 43 20 23 - - -
05/03:30pm - - - - - S 32 35 17 19 - - -
05/03:00pm - - - - - SSW 32 35 17 19 - - -
05/02:30pm - - - - - SSW 32 35 17 19 - - -
05/02:00pm - - - - - SSW 30 32 16 17 - - -
05/01:30pm - - - - - SSW 28 32 15 17 - - -
05/01:00pm - - - - - SW 28 30 15 16 - - -
05/12:30pm - - - - - SSW 22 24 12 13 - - -
05/12:00pm - - - - - SSW 20 22 11 12 - - -
05/11:30am - - - - - SSW 19 20 10 11 - - -
05/11:00am - - - - - SSW 19 22 10 12 - - -
05/10:30am - - - - - SE 9 11 5 6 - - -
05/10:00am - - - - - SE 11 15 6 8 - - -
05/09:30am - - - - - SE 7 11 4 6 - - -
05/09:00am - - - - - ESE 6 7 3 4 - - -
05/08:30am - - - - - ENE 6 9 3 5 - - -
05/08:00am - - - - - E 7 9 4 5 - - -
05/07:30am - - - - - E 9 15 5 8 - - -
05/07:00am - - - - - ESE 13 17 7 9 - - -
05/06:30am - - - - - ESE 17 20 9 11 - - -
05/06:00am - - - - - E 11 15 6 8 - - -
05/05:30am - - - - - S 7 13 4 7 - - -
05/05:00am - - - - - S 4 13 2 7 - - -
05/04:30am - - - - - SSW 4 6 2 3 - - -
05/04:00am - - - - - SSW 2 6 1 3 - - -
05/03:30am - - - - - SSW 2 6 1 3 - - -
05/03:00am - - - - - SSW 2 6 1 3 - - -
05/02:30am - - - - - SSW 7 13 4 7 - - -
05/02:00am - - - - - S 11 17 6 9 - - -
05/01:30am - - - - - S 17 20 9 11 - - -
05/01:00am - - - - - S 17 20 9 11 - - -
05/12:30am - - - - - SSE 19 22 10 12 - - -
05/12:00am - - - - - S 19 24 10 13 - - -
 
Date/Time
CDT
Temp
°C
App
Temp
°C
Dew
Point
°C
Rel
Hum
%
Delta-T
°C
Wind Press
QNH
hPa
Press
MSL
hPa
Rain since
9am
mm
Dir  Spd
km/h
Gust
km/h
Spd
kts
Gust
kts
04/11:30pm - - - - - SSE 19 26 10 14 - - -
04/11:00pm - - - - - S 22 28 12 15 - - -
04/10:30pm - - - - - SSE 24 32 13 17 - - -
04/10:00pm - - - - - S 28 32 15 17 - - -
04/09:30pm - - - - - S 24 30 13 16 - - -
04/09:00pm - - - - - S 26 35 14 19 - - -
04/08:30pm - - - - - SSW 35 44 19 24 - - -
04/08:00pm - - - - - SSW 39 46 21 25 - - -
04/07:30pm - - - - - S 43 52 23 28 - - -
04/07:00pm - - - - - SSW 41 48 22 26 - - -
04/06:30pm - - - - - SSW 44 50 24 27 - - -
04/06:00pm - - - - - SSW 44 50 24 27 - - -
04/05:30pm - - - - - SSW 43 54 23 29 - - -
04/05:00pm - - - - - SSW 44 52 24 28 - - -
04/04:30pm - - - - - SSW 44 52 24 28 - - -
04/04:00pm - - - - - SSW 44 52 24 28 - - -
04/03:30pm - - - - - SSW 43 48 23 26 - - -
04/03:00pm - - - - - SSW 39 46 21 25 - - -
04/02:30pm - - - - - SSW 37 43 20 23 - - -
04/02:00pm - - - - - SSW 37 43 20 23 - - -
04/01:30pm - - - - - SSW 33 41 18 22 - - -
04/01:00pm - - - - - SSW 33 41 18 22 - - -
04/12:30pm - - - - - SSW 30 33 16 18 - - -
04/12:00pm - - - - - SSW 26 30 14 16 - - -
04/11:30am - - - - - SSW 28 35 15 19 - - -
04/11:00am - - - - - SSW 30 41 16 22 - - -
04/10:30am - - - - - SSW 24 32 13 17 - - -
04/10:00am - - - - - S 22 30 12 16 - - -
04/09:30am - - - - - S 24 33 13 18 - - -
04/09:00am - - - - - S 17 30 9 16 - - -
04/08:30am - - - - - S 19 22 10 12 - - -
04/08:00am - - - - - S 13 20 7 11 - - -
04/07:30am - - - - - SSE 19 24 10 13 - - -

Other formats

Comma delimited format used in spreadsheet applications
http://www.bom.gov.au/fwo/IDS60801/IDS60801.95675.axf

JavaScript Object Notation format (JSON) in row-major order
http://www.bom.gov.au/fwo/IDS60801/IDS60801.95675.json

Data quality

Most of these data are generated automatically and are frequently updated. Quality checks on data are not normally performed. It is possible for incorrect values to appear. Refer to information at About Latest Weather Observations and please check the disclaimer before using these data.